sensor_id;sensor_type;location;lat;lon;timestamp;P1;durP1;ratioP1;P2;durP2;ratioP2
9918;SDS011;4998;51.024;13.828;2023-05-19T00:01:26;4.60;;;3.17;;
9918;SDS011;4998;51.024;13.828;2023-05-19T00:03:54;5.10;;;3.50;;
9918;SDS011;4998;51.024;13.828;2023-05-19T00:06:26;4.80;;;3.60;;
9918;SDS011;4998;51.024;13.828;2023-05-19T00:08:56;5.23;;;3.73;;
9918;SDS011;4998;51.024;13.828;2023-05-19T00:11:24;4.83;;;3.50;;
9918;SDS011;4998;51.024;13.828;2023-05-19T00:13:53;6.23;;;3.30;;
9918;SDS011;4998;51.024;13.828;2023-05-19T00:16:21;4.40;;;3.30;;
9918;SDS011;4998;51.024;13.828;2023-05-19T00:18:49;4.20;;;3.80;;
9918;SDS011;4998;51.024;13.828;2023-05-19T00:21:17;5.10;;;3.40;;
9918;SDS011;4998;51.024;13.828;2023-05-19T00:23:44;4.63;;;3.20;;
9918;SDS011;4998;51.024;13.828;2023-05-19T00:26:11;4.53;;;3.57;;
9918;SDS011;4998;51.024;13.828;2023-05-19T00:28:38;7.00;;;3.70;;
9918;SDS011;4998;51.024;13.828;2023-05-19T00:31:07;3.57;;;3.20;;
9918;SDS011;4998;51.024;13.828;2023-05-19T00:33:34;4.77;;;3.30;;
9918;SDS011;4998;51.024;13.828;2023-05-19T00:36:01;4.17;;;3.40;;
9918;SDS011;4998;51.024;13.828;2023-05-19T00:38:29;4.33;;;3.00;;
9918;SDS011;4998;51.024;13.828;2023-05-19T00:40:56;4.80;;;3.10;;
9918;SDS011;4998;51.024;13.828;2023-05-19T00:43:23;3.20;;;2.63;;
9918;SDS011;4998;51.024;13.828;2023-05-19T00:45:50;3.13;;;2.50;;
9918;SDS011;4998;51.024;13.828;2023-05-19T00:48:18;2.80;;;2.60;;
9918;SDS011;4998;51.024;13.828;2023-05-19T00:50:46;3.60;;;2.73;;
9918;SDS011;4998;51.024;13.828;2023-05-19T00:53:13;3.33;;;2.60;;
9918;SDS011;4998;51.024;13.828;2023-05-19T00:55:43;2.60;;;2.40;;
9918;SDS011;4998;51.024;13.828;2023-05-19T00:58:11;2.60;;;2.40;;
9918;SDS011;4998;51.024;13.828;2023-05-19T01:00:39;3.20;;;2.60;;
9918;SDS011;4998;51.024;13.828;2023-05-19T01:03:07;2.17;;;2.07;;
9918;SDS011;4998;51.024;13.828;2023-05-19T01:05:38;2.50;;;2.27;;
9918;SDS011;4998;51.024;13.828;2023-05-19T01:08:06;3.53;;;2.17;;
9918;SDS011;4998;51.024;13.828;2023-05-19T01:10:33;2.60;;;2.40;;
9918;SDS011;4998;51.024;13.828;2023-05-19T01:13:00;3.67;;;2.60;;
9918;SDS011;4998;51.024;13.828;2023-05-19T01:15:28;2.50;;;2.30;;
9918;SDS011;4998;51.024;13.828;2023-05-19T01:18:00;2.40;;;2.20;;
9918;SDS011;4998;51.024;13.828;2023-05-19T01:20:34;3.10;;;2.47;;
9918;SDS011;4998;51.024;13.828;2023-05-19T01:23:15;3.00;;;2.40;;
9918;SDS011;4998;51.024;13.828;2023-05-19T01:26:03;3.50;;;2.40;;
9918;SDS011;4998;51.024;13.828;2023-05-19T01:31:34;5.67;;;1.90;;
9918;SDS011;4998;51.024;13.828;2023-05-19T01:34:04;2.57;;;2.37;;
9918;SDS011;4998;51.024;13.828;2023-05-19T01:36:32;3.07;;;1.90;;
9918;SDS011;4998;51.024;13.828;2023-05-19T01:39:00;4.07;;;2.50;;
9918;SDS011;4998;51.024;13.828;2023-05-19T01:41:28;5.03;;;2.37;;
9918;SDS011;4998;51.024;13.828;2023-05-19T01:43:56;2.60;;;2.30;;
9918;SDS011;4998;51.024;13.828;2023-05-19T01:46:24;2.37;;;2.17;;
9918;SDS011;4998;51.024;13.828;2023-05-19T01:48:52;3.03;;;2.20;;
9918;SDS011;4998;51.024;13.828;2023-05-19T01:51:20;2.93;;;2.07;;
9918;SDS011;4998;51.024;13.828;2023-05-19T01:53:46;4.13;;;2.50;;
9918;SDS011;4998;51.024;13.828;2023-05-19T01:56:14;2.40;;;2.20;;
9918;SDS011;4998;51.024;13.828;2023-05-19T01:58:47;2.97;;;2.67;;
9918;SDS011;4998;51.024;13.828;2023-05-19T02:01:25;2.40;;;2.20;;
9918;SDS011;4998;51.024;13.828;2023-05-19T02:04:10;9.53;;;2.43;;
9918;SDS011;4998;51.024;13.828;2023-05-19T02:06:45;2.30;;;2.10;;
9918;SDS011;4998;51.024;13.828;2023-05-19T02:09:21;6.10;;;2.60;;
9918;SDS011;4998;51.024;13.828;2023-05-19T02:11:53;3.10;;;2.30;;
9918;SDS011;4998;51.024;13.828;2023-05-19T02:14:28;3.50;;;2.50;;
9918;SDS011;4998;51.024;13.828;2023-05-19T02:16:58;2.80;;;2.23;;
9918;SDS011;4998;51.024;13.828;2023-05-19T02:19:30;3.30;;;2.63;;
9918;SDS011;4998;51.024;13.828;2023-05-19T02:21:58;4.20;;;2.60;;
9918;SDS011;4998;51.024;13.828;2023-05-19T02:24:25;8.57;;;2.40;;
9918;SDS011;4998;51.024;13.828;2023-05-19T02:26:52;3.90;;;2.30;;
9918;SDS011;4998;51.024;13.828;2023-05-19T02:29:19;3.07;;;2.43;;
9918;SDS011;4998;51.024;13.828;2023-05-19T02:31:46;3.40;;;2.77;;
9918;SDS011;4998;51.024;13.828;2023-05-19T02:34:14;3.80;;;2.30;;
9918;SDS011;4998;51.024;13.828;2023-05-19T02:36:42;2.70;;;2.50;;
9918;SDS011;4998;51.024;13.828;2023-05-19T02:39:10;5.23;;;2.57;;
9918;SDS011;4998;51.024;13.828;2023-05-19T02:41:37;3.17;;;2.87;;
9918;SDS011;4998;51.024;13.828;2023-05-19T02:44:04;3.00;;;2.73;;
9918;SDS011;4998;51.024;13.828;2023-05-19T02:46:31;3.83;;;2.83;;
9918;SDS011;4998;51.024;13.828;2023-05-19T02:48:58;4.30;;;3.03;;
9918;SDS011;4998;51.024;13.828;2023-05-19T02:51:25;3.03;;;2.73;;
9918;SDS011;4998;51.024;13.828;2023-05-19T02:53:54;3.97;;;2.90;;
9918;SDS011;4998;51.024;13.828;2023-05-19T02:56:21;2.80;;;2.60;;
9918;SDS011;4998;51.024;13.828;2023-05-19T02:58:48;5.93;;;2.73;;
9918;SDS011;4998;51.024;13.828;2023-05-19T03:01:15;3.70;;;2.70;;
9918;SDS011;4998;51.024;13.828;2023-05-19T03:03:42;3.30;;;2.97;;
9918;SDS011;4998;51.024;13.828;2023-05-19T03:06:09;3.93;;;2.90;;
9918;SDS011;4998;51.024;13.828;2023-05-19T03:08:36;3.20;;;2.67;;
9918;SDS011;4998;51.024;13.828;2023-05-19T03:11:05;2.90;;;2.70;;
9918;SDS011;4998;51.024;13.828;2023-05-19T03:13:32;4.40;;;2.77;;
9918;SDS011;4998;51.024;13.828;2023-05-19T03:15:59;3.67;;;2.63;;
9918;SDS011;4998;51.024;13.828;2023-05-19T03:18:27;2.97;;;2.67;;
9918;SDS011;4998;51.024;13.828;2023-05-19T03:20:54;6.50;;;2.40;;
9918;SDS011;4998;51.024;13.828;2023-05-19T03:23:21;3.80;;;2.20;;
9918;SDS011;4998;51.024;13.828;2023-05-19T03:25:48;2.70;;;2.50;;
9918;SDS011;4998;51.024;13.828;2023-05-19T03:28:17;2.47;;;2.27;;
9918;SDS011;4998;51.024;13.828;2023-05-19T03:30:44;3.23;;;2.53;;
9918;SDS011;4998;51.024;13.828;2023-05-19T03:33:14;2.60;;;2.30;;
9918;SDS011;4998;51.024;13.828;2023-05-19T03:35:41;2.90;;;2.70;;
9918;SDS011;4998;51.024;13.828;2023-05-19T03:38:08;3.60;;;2.50;;
9918;SDS011;4998;51.024;13.828;2023-05-19T03:40:35;5.17;;;2.67;;
9918;SDS011;4998;51.024;13.828;2023-05-19T03:43:02;2.60;;;2.40;;
9918;SDS011;4998;51.024;13.828;2023-05-19T03:45:31;3.27;;;2.57;;
9918;SDS011;4998;51.024;13.828;2023-05-19T03:47:58;4.00;;;2.60;;
9918;SDS011;4998;51.024;13.828;2023-05-19T03:50:25;6.60;;;2.83;;
9918;SDS011;4998;51.024;13.828;2023-05-19T03:52:53;2.50;;;2.30;;
9918;SDS011;4998;51.024;13.828;2023-05-19T03:55:20;2.60;;;2.40;;
9918;SDS011;4998;51.024;13.828;2023-05-19T03:57:47;2.83;;;2.57;;
9918;SDS011;4998;51.024;13.828;2023-05-19T04:00:14;2.20;;;2.03;;
9918;SDS011;4998;51.024;13.828;2023-05-19T04:02:43;2.40;;;2.20;;
9918;SDS011;4998;51.024;13.828;2023-05-19T04:05:10;2.77;;;2.50;;
9918;SDS011;4998;51.024;13.828;2023-05-19T04:07:37;2.90;;;2.60;;
9918;SDS011;4998;51.024;13.828;2023-05-19T04:10:04;2.70;;;2.50;;
9918;SDS011;4998;51.024;13.828;2023-05-19T04:12:32;3.80;;;2.40;;
9918;SDS011;4998;51.024;13.828;2023-05-19T04:14:59;2.40;;;2.20;;
9918;SDS011;4998;51.024;13.828;2023-05-19T04:17:26;2.60;;;2.40;;
9918;SDS011;4998;51.024;13.828;2023-05-19T04:19:55;4.80;;;2.60;;
9918;SDS011;4998;51.024;13.828;2023-05-19T04:22:22;3.23;;;2.60;;
9918;SDS011;4998;51.024;13.828;2023-05-19T04:24:48;3.20;;;2.80;;
9918;SDS011;4998;51.024;13.828;2023-05-19T04:27:17;6.90;;;2.80;;
9918;SDS011;4998;51.024;13.828;2023-05-19T04:29:44;2.70;;;2.50;;
9918;SDS011;4998;51.024;13.828;2023-05-19T04:32:12;2.60;;;2.23;;
9918;SDS011;4998;51.024;13.828;2023-05-19T04:34:41;2.90;;;2.50;;
9918;SDS011;4998;51.024;13.828;2023-05-19T04:37:12;2.73;;;2.53;;
9918;SDS011;4998;51.024;13.828;2023-05-19T04:39:40;2.97;;;2.30;;
9918;SDS011;4998;51.024;13.828;2023-05-19T04:42:09;2.90;;;2.53;;
9918;SDS011;4998;51.024;13.828;2023-05-19T04:44:37;2.50;;;2.30;;
9918;SDS011;4998;51.024;13.828;2023-05-19T04:47:05;3.03;;;2.60;;
9918;SDS011;4998;51.024;13.828;2023-05-19T04:49:33;2.67;;;2.40;;
9918;SDS011;4998;51.024;13.828;2023-05-19T04:52:03;3.57;;;2.60;;
9918;SDS011;4998;51.024;13.828;2023-05-19T04:54:33;3.30;;;2.83;;
9918;SDS011;4998;51.024;13.828;2023-05-19T04:57:00;4.33;;;2.90;;
9918;SDS011;4998;51.024;13.828;2023-05-19T04:59:27;3.43;;;2.80;;
9918;SDS011;4998;51.024;13.828;2023-05-19T05:01:54;5.20;;;3.00;;
9918;SDS011;4998;51.024;13.828;2023-05-19T05:04:22;4.73;;;2.90;;
9918;SDS011;4998;51.024;13.828;2023-05-19T05:06:49;3.40;;;2.97;;
9918;SDS011;4998;51.024;13.828;2023-05-19T05:09:16;2.63;;;2.40;;
9918;SDS011;4998;51.024;13.828;2023-05-19T05:11:45;3.93;;;2.50;;
9918;SDS011;4998;51.024;13.828;2023-05-19T05:14:13;3.27;;;2.97;;
9918;SDS011;4998;51.024;13.828;2023-05-19T05:16:40;2.93;;;2.50;;
9918;SDS011;4998;51.024;13.828;2023-05-19T05:19:08;2.97;;;2.70;;
9918;SDS011;4998;51.024;13.828;2023-05-19T05:21:36;7.80;;;3.17;;
9918;SDS011;4998;51.024;13.828;2023-05-19T05:24:03;3.63;;;2.80;;
9918;SDS011;4998;51.024;13.828;2023-05-19T05:26:32;3.43;;;2.70;;
9918;SDS011;4998;51.024;13.828;2023-05-19T05:29:02;2.70;;;2.50;;
9918;SDS011;4998;51.024;13.828;2023-05-19T05:31:29;3.30;;;2.70;;
9918;SDS011;4998;51.024;13.828;2023-05-19T05:33:56;7.60;;;2.70;;
9918;SDS011;4998;51.024;13.828;2023-05-19T05:36:25;3.00;;;2.67;;
9918;SDS011;4998;51.024;13.828;2023-05-19T05:38:52;3.93;;;2.60;;
9918;SDS011;4998;51.024;13.828;2023-05-19T05:41:19;3.77;;;2.87;;
9918;SDS011;4998;51.024;13.828;2023-05-19T05:43:46;4.27;;;3.03;;
9918;SDS011;4998;51.024;13.828;2023-05-19T05:46:15;2.87;;;2.53;;
9918;SDS011;4998;51.024;13.828;2023-05-19T05:48:42;8.10;;;3.50;;
9918;SDS011;4998;51.024;13.828;2023-05-19T05:51:10;5.17;;;2.80;;
9918;SDS011;4998;51.024;13.828;2023-05-19T05:53:39;3.50;;;2.83;;
9918;SDS011;4998;51.024;13.828;2023-05-19T05:56:09;3.67;;;2.47;;
9918;SDS011;4998;51.024;13.828;2023-05-19T05:58:37;3.03;;;2.70;;
9918;SDS011;4998;51.024;13.828;2023-05-19T06:01:04;3.70;;;3.00;;
9918;SDS011;4998;51.024;13.828;2023-05-19T06:03:37;3.73;;;2.63;;
9918;SDS011;4998;51.024;13.828;2023-05-19T06:06:05;5.73;;;3.27;;
9918;SDS011;4998;51.024;13.828;2023-05-19T06:08:33;5.03;;;2.83;;
9918;SDS011;4998;51.024;13.828;2023-05-19T06:11:00;4.17;;;2.87;;
9918;SDS011;4998;51.024;13.828;2023-05-19T06:13:32;11.67;;;2.80;;
9918;SDS011;4998;51.024;13.828;2023-05-19T06:15:59;3.27;;;2.97;;
9918;SDS011;4998;51.024;13.828;2023-05-19T06:18:26;8.50;;;2.90;;
9918;SDS011;4998;51.024;13.828;2023-05-19T06:20:55;3.13;;;2.83;;
9918;SDS011;4998;51.024;13.828;2023-05-19T06:23:22;7.70;;;3.70;;
9918;SDS011;4998;51.024;13.828;2023-05-19T06:25:50;3.23;;;2.93;;
9918;SDS011;4998;51.024;13.828;2023-05-19T06:28:17;3.70;;;3.30;;
9918;SDS011;4998;51.024;13.828;2023-05-19T06:30:45;3.50;;;2.70;;
9918;SDS011;4998;51.024;13.828;2023-05-19T06:33:12;3.17;;;2.80;;
9918;SDS011;4998;51.024;13.828;2023-05-19T06:35:39;4.33;;;2.57;;
9918;SDS011;4998;51.024;13.828;2023-05-19T06:38:07;2.50;;;2.23;;
9918;SDS011;4998;51.024;13.828;2023-05-19T06:40:34;2.87;;;2.67;;
9918;SDS011;4998;51.024;13.828;2023-05-19T06:43:02;2.80;;;2.60;;
9918;SDS011;4998;51.024;13.828;2023-05-19T06:45:29;5.80;;;2.70;;
9918;SDS011;4998;51.024;13.828;2023-05-19T06:47:56;4.33;;;2.77;;
9918;SDS011;4998;51.024;13.828;2023-05-19T06:50:23;2.70;;;2.40;;
9918;SDS011;4998;51.024;13.828;2023-05-19T06:52:50;2.83;;;2.57;;
9918;SDS011;4998;51.024;13.828;2023-05-19T06:55:19;2.87;;;2.60;;
9918;SDS011;4998;51.024;13.828;2023-05-19T06:57:46;2.87;;;2.63;;
9918;SDS011;4998;51.024;13.828;2023-05-19T07:00:13;3.40;;;3.03;;
9918;SDS011;4998;51.024;13.828;2023-05-19T07:02:41;3.40;;;2.93;;
9918;SDS011;4998;51.024;13.828;2023-05-19T07:05:08;4.90;;;3.10;;
9918;SDS011;4998;51.024;13.828;2023-05-19T07:07:35;3.30;;;3.00;;
9918;SDS011;4998;51.024;13.828;2023-05-19T07:10:02;4.50;;;3.43;;
9918;SDS011;4998;51.024;13.828;2023-05-19T07:12:31;6.40;;;3.20;;
9918;SDS011;4998;51.024;13.828;2023-05-19T07:14:58;3.17;;;2.87;;
9918;SDS011;4998;51.024;13.828;2023-05-19T07:17:25;5.07;;;2.90;;
9918;SDS011;4998;51.024;13.828;2023-05-19T07:19:52;3.43;;;2.90;;
9918;SDS011;4998;51.024;13.828;2023-05-19T07:22:19;4.27;;;3.17;;
9918;SDS011;4998;51.024;13.828;2023-05-19T07:24:46;3.47;;;2.90;;
9918;SDS011;4998;51.024;13.828;2023-05-19T07:27:13;3.00;;;2.70;;
9918;SDS011;4998;51.024;13.828;2023-05-19T07:29:41;3.03;;;2.80;;
9918;SDS011;4998;51.024;13.828;2023-05-19T07:32:08;2.80;;;2.60;;
9918;SDS011;4998;51.024;13.828;2023-05-19T07:34:35;7.10;;;2.97;;
9918;SDS011;4998;51.024;13.828;2023-05-19T07:37:02;3.50;;;3.07;;
9918;SDS011;4998;51.024;13.828;2023-05-19T07:39:29;3.03;;;2.70;;
9918;SDS011;4998;51.024;13.828;2023-05-19T07:41:56;3.80;;;2.80;;
9918;SDS011;4998;51.024;13.828;2023-05-19T07:44:23;4.13;;;2.70;;
9918;SDS011;4998;51.024;13.828;2023-05-19T07:46:52;3.23;;;2.93;;
9918;SDS011;4998;51.024;13.828;2023-05-19T07:49:19;2.90;;;2.70;;
9918;SDS011;4998;51.024;13.828;2023-05-19T07:51:46;3.03;;;2.57;;
9918;SDS011;4998;51.024;13.828;2023-05-19T07:54:14;6.30;;;3.10;;
9918;SDS011;4998;51.024;13.828;2023-05-19T07:56:41;3.07;;;2.50;;
9918;SDS011;4998;51.024;13.828;2023-05-19T07:59:09;3.07;;;2.60;;
9918;SDS011;4998;51.024;13.828;2023-05-19T08:01:36;2.90;;;2.70;;
9918;SDS011;4998;51.024;13.828;2023-05-19T08:04:04;2.53;;;2.33;;
9918;SDS011;4998;51.024;13.828;2023-05-19T08:06:31;4.77;;;2.63;;
9918;SDS011;4998;51.024;13.828;2023-05-19T08:08:59;2.50;;;2.17;;
9918;SDS011;4998;51.024;13.828;2023-05-19T08:11:26;2.50;;;2.30;;
9918;SDS011;4998;51.024;13.828;2023-05-19T08:13:53;3.43;;;2.67;;
9918;SDS011;4998;51.024;13.828;2023-05-19T08:16:20;4.27;;;2.73;;
9918;SDS011;4998;51.024;13.828;2023-05-19T08:18:47;23.87;;;2.53;;
9918;SDS011;4998;51.024;13.828;2023-05-19T08:21:15;4.33;;;2.20;;
9918;SDS011;4998;51.024;13.828;2023-05-19T08:23:42;2.10;;;1.90;;
9918;SDS011;4998;51.024;13.828;2023-05-19T08:26:09;3.67;;;2.27;;
9918;SDS011;4998;51.024;13.828;2023-05-19T08:28:37;2.60;;;2.20;;
9918;SDS011;4998;51.024;13.828;2023-05-19T08:31:03;3.33;;;2.43;;
9918;SDS011;4998;51.024;13.828;2023-05-19T08:33:31;2.80;;;2.50;;
9918;SDS011;4998;51.024;13.828;2023-05-19T08:35:58;3.17;;;2.73;;
9918;SDS011;4998;51.024;13.828;2023-05-19T08:38:26;2.57;;;2.37;;
9918;SDS011;4998;51.024;13.828;2023-05-19T08:40:53;3.73;;;2.37;;
9918;SDS011;4998;51.024;13.828;2023-05-19T08:43:22;2.90;;;2.33;;
9918;SDS011;4998;51.024;13.828;2023-05-19T08:45:49;4.43;;;2.40;;
9918;SDS011;4998;51.024;13.828;2023-05-19T08:48:18;4.67;;;2.40;;
9918;SDS011;4998;51.024;13.828;2023-05-19T08:50:45;3.40;;;3.00;;
9918;SDS011;4998;51.024;13.828;2023-05-19T08:53:22;3.63;;;2.60;;
9918;SDS011;4998;51.024;13.828;2023-05-19T08:55:59;3.10;;;2.07;;
9918;SDS011;4998;51.024;13.828;2023-05-19T08:58:34;5.23;;;2.70;;
9918;SDS011;4998;51.024;13.828;2023-05-19T09:01:03;3.53;;;2.50;;
9918;SDS011;4998;51.024;13.828;2023-05-19T09:03:31;3.20;;;2.70;;
9918;SDS011;4998;51.024;13.828;2023-05-19T09:06:02;2.43;;;2.20;;
9918;SDS011;4998;51.024;13.828;2023-05-19T09:08:32;3.93;;;2.23;;
9918;SDS011;4998;51.024;13.828;2023-05-19T09:11:00;2.60;;;2.40;;
9918;SDS011;4998;51.024;13.828;2023-05-19T09:13:27;2.60;;;2.40;;
9918;SDS011;4998;51.024;13.828;2023-05-19T09:15:54;2.70;;;2.50;;
9918;SDS011;4998;51.024;13.828;2023-05-19T09:18:22;4.13;;;2.27;;
9918;SDS011;4998;51.024;13.828;2023-05-19T09:20:54;2.70;;;2.50;;
9918;SDS011;4998;51.024;13.828;2023-05-19T09:23:25;2.40;;;2.10;;
9918;SDS011;4998;51.024;13.828;2023-05-19T09:25:55;2.93;;;2.13;;
9918;SDS011;4998;51.024;13.828;2023-05-19T09:28:23;4.83;;;2.40;;
9918;SDS011;4998;51.024;13.828;2023-05-19T09:31:01;4.03;;;2.40;;
9918;SDS011;4998;51.024;13.828;2023-05-19T09:33:29;2.60;;;2.13;;
9918;SDS011;4998;51.024;13.828;2023-05-19T09:35:58;2.43;;;2.27;;
9918;SDS011;4998;51.024;13.828;2023-05-19T09:38:25;4.07;;;2.50;;
9918;SDS011;4998;51.024;13.828;2023-05-19T09:40:55;2.60;;;2.40;;
9918;SDS011;4998;51.024;13.828;2023-05-19T09:43:25;2.73;;;2.50;;
9918;SDS011;4998;51.024;13.828;2023-05-19T09:45:54;2.67;;;2.47;;
9918;SDS011;4998;51.024;13.828;2023-05-19T09:48:24;3.20;;;2.70;;
9918;SDS011;4998;51.024;13.828;2023-05-19T09:50:52;5.90;;;2.73;;
9918;SDS011;4998;51.024;13.828;2023-05-19T09:53:21;4.77;;;3.27;;
9918;SDS011;4998;51.024;13.828;2023-05-19T09:55:49;5.10;;;3.17;;
9918;SDS011;4998;51.024;13.828;2023-05-19T09:58:22;3.53;;;2.93;;
9918;SDS011;4998;51.024;13.828;2023-05-19T10:00:50;3.67;;;3.00;;
9918;SDS011;4998;51.024;13.828;2023-05-19T10:03:19;2.97;;;2.77;;
9918;SDS011;4998;51.024;13.828;2023-05-19T10:05:48;3.50;;;2.50;;
9918;SDS011;4998;51.024;13.828;2023-05-19T10:08:15;4.00;;;2.47;;
9918;SDS011;4998;51.024;13.828;2023-05-19T10:10:44;2.77;;;2.40;;
9918;SDS011;4998;51.024;13.828;2023-05-19T10:13:12;4.70;;;3.10;;
9918;SDS011;4998;51.024;13.828;2023-05-19T10:15:40;9.83;;;2.63;;
9918;SDS011;4998;51.024;13.828;2023-05-19T10:18:09;3.43;;;2.67;;
9918;SDS011;4998;51.024;13.828;2023-05-19T10:20:37;3.20;;;2.90;;
9918;SDS011;4998;51.024;13.828;2023-05-19T10:23:05;3.30;;;2.97;;
9918;SDS011;4998;51.024;13.828;2023-05-19T10:25:33;3.07;;;2.50;;
9918;SDS011;4998;51.024;13.828;2023-05-19T10:28:02;2.30;;;2.10;;
9918;SDS011;4998;51.024;13.828;2023-05-19T10:30:34;2.50;;;2.30;;
9918;SDS011;4998;51.024;13.828;2023-05-19T10:33:07;5.50;;;2.60;;
9918;SDS011;4998;51.024;13.828;2023-05-19T10:35:50;2.77;;;2.43;;
9918;SDS011;4998;51.024;13.828;2023-05-19T10:38:33;2.67;;;2.40;;
9918;SDS011;4998;51.024;13.828;2023-05-19T10:41:09;2.40;;;1.80;;
9918;SDS011;4998;51.024;13.828;2023-05-19T10:43:43;2.00;;;1.90;;
9918;SDS011;4998;51.024;13.828;2023-05-19T10:46:22;5.40;;;2.33;;
9918;SDS011;4998;51.024;13.828;2023-05-19T10:48:52;2.60;;;2.40;;
9918;SDS011;4998;51.024;13.828;2023-05-19T10:51:19;3.77;;;2.33;;
9918;SDS011;4998;51.024;13.828;2023-05-19T10:53:46;3.10;;;2.53;;
9918;SDS011;4998;51.024;13.828;2023-05-19T10:56:26;4.50;;;2.30;;
9918;SDS011;4998;51.024;13.828;2023-05-19T10:58:57;4.37;;;2.43;;
9918;SDS011;4998;51.024;13.828;2023-05-19T11:01:28;3.20;;;2.60;;
9918;SDS011;4998;51.024;13.828;2023-05-19T11:04:02;2.30;;;2.10;;
9918;SDS011;4998;51.024;13.828;2023-05-19T11:06:31;5.40;;;2.40;;
9918;SDS011;4998;51.024;13.828;2023-05-19T11:09:04;3.00;;;2.67;;
9918;SDS011;4998;51.024;13.828;2023-05-19T11:11:44;2.50;;;2.30;;
9918;SDS011;4998;51.024;13.828;2023-05-19T11:14:12;2.87;;;2.57;;
9918;SDS011;4998;51.024;13.828;2023-05-19T11:16:41;3.97;;;2.60;;
9918;SDS011;4998;51.024;13.828;2023-05-19T11:19:20;2.93;;;2.33;;
9918;SDS011;4998;51.024;13.828;2023-05-19T11:21:52;2.10;;;2.00;;
9918;SDS011;4998;51.024;13.828;2023-05-19T11:24:33;3.00;;;2.20;;
9918;SDS011;4998;51.024;13.828;2023-05-19T11:27:17;3.13;;;2.20;;
9918;SDS011;4998;51.024;13.828;2023-05-19T11:29:45;2.63;;;2.43;;
9918;SDS011;4998;51.024;13.828;2023-05-19T11:32:13;3.80;;;2.63;;
9918;SDS011;4998;51.024;13.828;2023-05-19T11:34:42;3.13;;;2.30;;
9918;SDS011;4998;51.024;13.828;2023-05-19T11:37:10;3.03;;;2.17;;
9918;SDS011;4998;51.024;13.828;2023-05-19T11:39:38;2.57;;;2.37;;
9918;SDS011;4998;51.024;13.828;2023-05-19T11:42:05;2.67;;;2.10;;
9918;SDS011;4998;51.024;13.828;2023-05-19T11:44:33;3.67;;;2.13;;
9918;SDS011;4998;51.024;13.828;2023-05-19T11:47:02;4.40;;;2.30;;
9918;SDS011;4998;51.024;13.828;2023-05-19T11:49:30;2.57;;;2.30;;
9918;SDS011;4998;51.024;13.828;2023-05-19T11:51:59;4.23;;;2.10;;
9918;SDS011;4998;51.024;13.828;2023-05-19T11:54:31;6.13;;;2.70;;
9918;SDS011;4998;51.024;13.828;2023-05-19T11:57:00;2.63;;;2.43;;
9918;SDS011;4998;51.024;13.828;2023-05-19T11:59:28;2.80;;;2.30;;
9918;SDS011;4998;51.024;13.828;2023-05-19T12:01:56;2.90;;;2.50;;
9918;SDS011;4998;51.024;13.828;2023-05-19T12:04:26;2.63;;;2.40;;
9918;SDS011;4998;51.024;13.828;2023-05-19T12:06:53;5.93;;;2.87;;
9918;SDS011;4998;51.024;13.828;2023-05-19T12:09:22;2.60;;;2.40;;
9918;SDS011;4998;51.024;13.828;2023-05-19T12:11:50;2.90;;;2.50;;
9918;SDS011;4998;51.024;13.828;2023-05-19T12:14:17;2.20;;;2.00;;
9918;SDS011;4998;51.024;13.828;2023-05-19T12:16:44;3.83;;;2.43;;
9918;SDS011;4998;51.024;13.828;2023-05-19T12:19:11;3.07;;;2.23;;
9918;SDS011;4998;51.024;13.828;2023-05-19T12:21:39;3.50;;;2.57;;
9918;SDS011;4998;51.024;13.828;2023-05-19T12:24:06;2.43;;;2.20;;
9918;SDS011;4998;51.024;13.828;2023-05-19T12:26:36;2.93;;;2.50;;
9918;SDS011;4998;51.024;13.828;2023-05-19T12:29:03;3.10;;;2.80;;
9918;SDS011;4998;51.024;13.828;2023-05-19T12:31:31;2.47;;;2.27;;
9918;SDS011;4998;51.024;13.828;2023-05-19T12:34:00;4.47;;;2.90;;
9918;SDS011;4998;51.024;13.828;2023-05-19T12:36:27;3.47;;;2.50;;
9918;SDS011;4998;51.024;13.828;2023-05-19T12:38:56;6.80;;;3.50;;
9918;SDS011;4998;51.024;13.828;2023-05-19T12:41:23;2.90;;;2.70;;
9918;SDS011;4998;51.024;13.828;2023-05-19T12:43:53;5.23;;;3.27;;
9918;SDS011;4998;51.024;13.828;2023-05-19T12:46:20;5.10;;;2.70;;
9918;SDS011;4998;51.024;13.828;2023-05-19T12:48:47;3.17;;;2.80;;
9918;SDS011;4998;51.024;13.828;2023-05-19T12:51:15;3.53;;;2.93;;
9918;SDS011;4998;51.024;13.828;2023-05-19T12:53:43;3.53;;;2.97;;
9918;SDS011;4998;51.024;13.828;2023-05-19T12:56:10;4.30;;;2.87;;
9918;SDS011;4998;51.024;13.828;2023-05-19T12:58:39;3.30;;;3.00;;
9918;SDS011;4998;51.024;13.828;2023-05-19T13:01:13;4.63;;;2.83;;
9918;SDS011;4998;51.024;13.828;2023-05-19T13:03:41;3.33;;;2.43;;
9918;SDS011;4998;51.024;13.828;2023-05-19T13:06:08;5.63;;;3.13;;
9918;SDS011;4998;51.024;13.828;2023-05-19T13:08:36;3.60;;;3.00;;
9918;SDS011;4998;51.024;13.828;2023-05-19T13:11:04;3.10;;;2.77;;
9918;SDS011;4998;51.024;13.828;2023-05-19T13:13:31;5.00;;;2.93;;
9918;SDS011;4998;51.024;13.828;2023-05-19T13:15:58;3.70;;;2.97;;
9918;SDS011;4998;51.024;13.828;2023-05-19T13:18:27;3.17;;;2.87;;
9918;SDS011;4998;51.024;13.828;2023-05-19T13:20:56;3.30;;;3.00;;
9918;SDS011;4998;51.024;13.828;2023-05-19T13:23:23;3.63;;;3.20;;
9918;SDS011;4998;51.024;13.828;2023-05-19T13:25:51;3.63;;;3.07;;
9918;SDS011;4998;51.024;13.828;2023-05-19T13:28:18;5.20;;;2.80;;
9918;SDS011;4998;51.024;13.828;2023-05-19T13:30:45;3.80;;;2.57;;
9918;SDS011;4998;51.024;13.828;2023-05-19T13:33:12;3.00;;;2.80;;
9918;SDS011;4998;51.024;13.828;2023-05-19T13:35:41;2.80;;;2.60;;
9918;SDS011;4998;51.024;13.828;2023-05-19T13:38:08;3.77;;;2.93;;
9918;SDS011;4998;51.024;13.828;2023-05-19T13:40:35;3.53;;;2.97;;
9918;SDS011;4998;51.024;13.828;2023-05-19T13:43:02;3.57;;;3.03;;
9918;SDS011;4998;51.024;13.828;2023-05-19T13:45:30;3.40;;;3.10;;
9918;SDS011;4998;51.024;13.828;2023-05-19T13:47:57;3.60;;;2.97;;
9918;SDS011;4998;51.024;13.828;2023-05-19T13:50:24;5.50;;;3.00;;
9918;SDS011;4998;51.024;13.828;2023-05-19T13:52:52;6.23;;;3.10;;
9918;SDS011;4998;51.024;13.828;2023-05-19T13:55:19;4.73;;;4.03;;
9918;SDS011;4998;51.024;13.828;2023-05-19T13:57:47;3.53;;;3.23;;
9918;SDS011;4998;51.024;13.828;2023-05-19T14:00:15;3.60;;;3.30;;
9918;SDS011;4998;51.024;13.828;2023-05-19T14:02:43;10.80;;;3.27;;
9918;SDS011;4998;51.024;13.828;2023-05-19T14:05:10;4.10;;;3.47;;
9918;SDS011;4998;51.024;13.828;2023-05-19T14:07:37;8.97;;;3.70;;
9918;SDS011;4998;51.024;13.828;2023-05-19T14:10:06;3.80;;;3.43;;
9918;SDS011;4998;51.024;13.828;2023-05-19T14:12:34;3.23;;;2.97;;
9918;SDS011;4998;51.024;13.828;2023-05-19T14:15:01;3.50;;;3.20;;
9918;SDS011;4998;51.024;13.828;2023-05-19T14:17:28;3.60;;;3.30;;
9918;SDS011;4998;51.024;13.828;2023-05-19T14:19:56;3.50;;;3.20;;
9918;SDS011;4998;51.024;13.828;2023-05-19T14:22:23;4.10;;;3.80;;
9918;SDS011;4998;51.024;13.828;2023-05-19T14:24:50;5.73;;;4.37;;
9918;SDS011;4998;51.024;13.828;2023-05-19T14:27:19;3.90;;;3.40;;
9918;SDS011;4998;51.024;13.828;2023-05-19T14:29:46;5.33;;;4.03;;
9918;SDS011;4998;51.024;13.828;2023-05-19T14:32:13;4.70;;;4.30;;
9918;SDS011;4998;51.024;13.828;2023-05-19T14:34:40;4.10;;;3.70;;
9918;SDS011;4998;51.024;13.828;2023-05-19T14:37:07;4.17;;;3.57;;
9918;SDS011;4998;51.024;13.828;2023-05-19T14:39:35;3.67;;;3.37;;
9918;SDS011;4998;51.024;13.828;2023-05-19T14:42:02;3.17;;;2.97;;
9918;SDS011;4998;51.024;13.828;2023-05-19T14:44:30;4.40;;;3.10;;
9918;SDS011;4998;51.024;13.828;2023-05-19T14:46:58;8.03;;;3.37;;
9918;SDS011;4998;51.024;13.828;2023-05-19T14:49:26;3.60;;;3.30;;
9918;SDS011;4998;51.024;13.828;2023-05-19T14:51:53;3.53;;;3.20;;
9918;SDS011;4998;51.024;13.828;2023-05-19T14:54:20;2.87;;;2.60;;
9918;SDS011;4998;51.024;13.828;2023-05-19T14:56:47;4.17;;;3.17;;
9918;SDS011;4998;51.024;13.828;2023-05-19T14:59:14;4.80;;;3.70;;
9918;SDS011;4998;51.024;13.828;2023-05-19T15:01:43;3.80;;;2.87;;
9918;SDS011;4998;51.024;13.828;2023-05-19T15:04:10;3.27;;;2.60;;
9918;SDS011;4998;51.024;13.828;2023-05-19T15:06:37;3.93;;;2.77;;
9918;SDS011;4998;51.024;13.828;2023-05-19T15:09:04;2.80;;;2.40;;
9918;SDS011;4998;51.024;13.828;2023-05-19T15:11:31;4.30;;;3.10;;